Time;durP1;ratioP1;P1;durP2;ratioP2;P2;SDS_P1;SDS_P2;PMS_P1;PMS_P2;Temp;Humidity;BMP_temperature;BMP_pressure;BME280_temperature;BME280_humidity;BME280_pressure;Samples;Min_cycle;Max_cycle;Signal;HPM_P1;HPM_P2
2022/05/29 00:01:19;;;;;;;4.20;2.52;;;;;;;12.38;69.13;99182.28;1745224;82;21538;-70
2022/05/29 00:03:49;;;;;;;3.80;1.57;;;;;;;12.43;68.80;99184.02;1747893;80;21071;-73
2022/05/29 00:06:16;;;;;;;4.03;1.75;;;;;;;12.43;68.58;99170.20;1745155;82;21814;-73
2022/05/29 00:08:43;;;;;;;5.30;1.50;;;;;;;12.44;68.35;99173.19;1750056;80;21078;-76
2022/05/29 00:11:13;;;;;;;2.47;1.45;;;;;;;12.45;68.30;99174.25;1753762;80;21023;-74
2022/05/29 00:13:42;;;;;;;3.65;1.62;;;;;;;12.45;68.41;99175.64;1743971;80;21544;-73
2022/05/29 00:16:08;;;;;;;3.67;2.17;;;;;;;12.46;68.67;99181.95;1748748;82;21069;-73
2022/05/29 00:18:36;;;;;;;3.90;2.10;;;;;;;12.41;68.87;99182.41;1742492;80;21482;-76
2022/05/29 00:21:02;;;;;;;3.52;2.20;;;;;;;12.37;68.92;99173.74;1742899;80;21532;-69
2022/05/29 00:23:32;;;;;;;5.00;2.30;;;;;;;12.34;69.10;99177.19;1746124;82;21075;-75
2022/05/29 00:25:59;;;;;;;10.78;1.98;;;;;;;12.35;69.20;99181.59;1743323;82;21086;-69
2022/05/29 00:28:26;;;;;;;3.85;2.00;;;;;;;12.36;69.24;99179.86;1751273;80;21582;-75
2022/05/29 00:30:54;;;;;;;6.42;2.20;;;;;;;12.36;69.43;99179.86;1747317;80;21130;-74
2022/05/29 00:33:20;;;;;;;4.08;2.10;;;;;;;12.32;69.73;99180.30;1746606;81;21525;-70
2022/05/29 00:35:48;;;;;;;5.15;1.70;;;;;;;12.30;70.00;99185.34;1747614;80;21036;-76
2022/05/29 00:38:15;;;;;;;6.15;1.77;;;;;;;12.32;70.09;99194.70;1749066;81;21166;-74
2022/05/29 00:40:57;;;;;;;4.22;1.80;;;;;;;12.34;70.08;99184.91;1749482;81;21061;-75
2022/05/29 00:43:25;;;;;;;5.47;1.92;;;;;;;12.37;70.20;99186.17;1747961;81;21142;-75
2022/05/29 00:45:59;;;;;;;7.10;2.05;;;;;;;12.36;70.24;99184.57;1745041;80;21481;-69
2022/05/29 00:48:25;;;;;;;4.15;1.60;;;;;;;12.36;70.29;99189.53;1747036;81;21067;-76
2022/05/29 00:50:56;;;;;;;4.83;2.08;;;;;;;12.38;70.10;99184.48;1747724;81;21018;-70
2022/05/29 00:53:22;;;;;;;4.22;1.98;;;;;;;12.39;69.79;99183.89;1748124;81;21047;-69
2022/05/29 00:55:55;;;;;;;5.60;2.20;;;;;;;12.41;69.64;99189.32;1749224;81;21036;-75
2022/05/29 00:58:24;;;;;;;7.42;2.17;;;;;;;12.43;69.48;99195.88;1746712;81;21121;-74
2022/05/29 01:00:51;;;;;;;8.05;2.47;;;;;;;12.45;69.25;99201.88;1745543;80;21153;-75
2022/05/29 01:03:18;;;;;;;7.08;2.77;;;;;;;12.46;69.06;99200.73;1749304;81;21075;-74
2022/05/29 01:05:45;;;;;;;6.55;2.55;;;;;;;12.48;68.82;99193.47;1749441;81;21127;-74
2022/05/29 01:08:20;;;;;;;5.53;2.58;;;;;;;12.48;68.69;99199.00;1703258;82;21055;-74
2022/05/29 01:10:52;;;;;;;5.53;2.65;;;;;;;12.49;68.58;99202.80;1755006;81;21035;-75
2022/05/29 01:13:34;;;;;;;5.37;2.50;;;;;;;12.49;68.47;99194.52;1743267;82;21485;-74
2022/05/29 01:16:21;;;;;;;4.97;2.50;;;;;;;12.50;68.31;99193.95;1759507;81;20972;-75
2022/05/29 01:19:45;;;;;;;5.62;2.08;;;;;;;12.47;68.17;99194.03;1752997;81;21155;-72
2022/05/29 01:22:40;;;;;;;5.05;1.67;;;;;;;12.45;68.36;99189.45;1743110;82;21822;-72
2022/05/29 01:25:28;;;;;;;4.60;2.42;;;;;;;12.46;68.44;99200.73;1726701;80;21066;-74
2022/05/29 01:28:16;;;;;;;3.58;1.70;;;;;;;12.48;68.54;99205.34;1726581;81;21579;-71
2022/05/29 01:30:51;;;;;;;2.10;1.52;;;;;;;12.52;68.37;99199.95;1720578;82;21039;-76
2022/05/29 01:33:23;;;;;;;4.97;2.02;;;;;;;12.55;68.43;99215.84;1739672;82;21064;-69
2022/05/29 01:35:55;;;;;;;3.72;1.72;;;;;;;12.57;68.27;99210.78;1743470;82;21808;-76
2022/05/29 01:38:34;;;;;;;7.85;1.92;;;;;;;12.58;68.16;99213.77;1756493;81;21011;-76
2022/05/29 01:41:11;;;;;;;3.42;1.72;;;;;;;12.60;67.96;99228.06;1753017;81;21039;-75
2022/05/29 01:43:51;;;;;;;3.10;1.72;;;;;;;12.60;67.66;99223.09;1754576;81;21532;-74
2022/05/29 01:46:29;;;;;;;4.67;1.75;;;;;;;12.62;67.44;99231.86;1749958;81;21038;-67
2022/05/29 01:49:16;;;;;;;3.60;2.12;;;;;;;12.61;67.14;99237.95;1753545;81;21300;-73
2022/05/29 01:52:09;;;;;;;3.30;2.00;;;;;;;12.61;67.04;99237.95;1750123;81;21011;-76
2022/05/29 01:54:44;;;;;;;5.47;1.70;;;;;;;12.61;66.76;99225.52;1743960;82;21044;-73
2022/05/29 01:57:24;;;;;;;3.85;2.10;;;;;;;12.58;66.78;99228.97;1740334;81;21012;-70
2022/05/29 02:00:02;;;;;;;2.95;2.00;;;;;;;12.55;66.54;99217.22;1757651;81;21000;-69
2022/05/29 02:02:41;;;;;;;4.80;2.20;;;;;;;12.53;66.35;99227.23;1743977;81;21521;-68
2022/05/29 02:05:11;;;;;;;4.72;1.90;;;;;;;12.51;66.16;99228.14;1748681;81;20999;-71
2022/05/29 02:07:48;;;;;;;2.60;2.08;;;;;;;12.49;66.07;99224.91;1740758;81;21003;-75
2022/05/29 02:10:41;;;;;;;4.75;1.82;;;;;;;12.51;65.88;99232.85;1740628;81;21054;-69
2022/05/29 02:13:16;;;;;;;2.87;1.62;;;;;;;12.51;65.71;99237.00;1740176;81;20992;-70
2022/05/29 02:16:05;;;;;;;1.82;1.40;;;;;;;12.48;65.23;99239.06;1724208;81;21051;-72
2022/05/29 02:18:46;;;;;;;5.80;2.00;;;;;;;12.45;65.07;99249.42;1739549;81;21051;-74
2022/05/29 02:21:36;;;;;;;2.72;2.02;;;;;;;12.43;65.06;99248.38;1739906;81;21059;-73
2022/05/29 02:24:08;;;;;;;3.58;1.62;;;;;;;12.42;64.86;99243.98;1737449;81;21008;-77
2022/05/29 02:26:42;;;;;;;6.33;2.30;;;;;;;12.41;64.76;99258.39;1737090;81;21066;-72
2022/05/29 02:29:11;;;;;;;3.77;1.85;;;;;;;12.37;64.83;99250.53;1737484;81;21067;-73
2022/05/29 02:32:27;;;;;;;2.65;1.45;;;;;;;12.37;65.01;99256.06;1710880;81;21027;-70
2022/05/29 02:35:21;;;;;;;4.87;2.35;;;;;;;12.35;65.02;99252.82;1740017;81;21551;-73
2022/05/29 02:37:59;;;;;;;1.25;1.10;;;;;;;12.29;64.95;99255.00;1733696;81;21020;-72
2022/05/29 02:40:58;;;;;;;2.87;1.42;;;;;;;12.26;65.10;99254.86;1741714;81;21543;-76
2022/05/29 02:43:48;;;;;;;2.62;1.20;;;;;;;12.22;65.16;99253.91;1745555;81;21828;-69
2022/05/29 02:46:25;;;;;;;3.05;1.20;;;;;;;12.17;65.13;99250.79;1745635;81;21038;-70
2022/05/29 02:49:09;;;;;;;2.15;0.90;;;;;;;12.14;65.47;99252.84;1744434;81;20999;-73
2022/05/29 02:51:51;;;;;;;6.53;1.57;;;;;;;12.13;65.76;99249.27;1745348;81;21026;-74
2022/05/29 02:54:27;;;;;;;6.67;1.17;;;;;;;12.14;65.70;99251.47;1745303;81;20992;-74
2022/05/29 02:56:56;;;;;;;2.42;1.07;;;;;;;12.14;65.71;99255.61;1745436;81;21759;-71
2022/05/29 02:59:25;;;;;;;1.52;1.20;;;;;;;12.14;65.69;99248.14;1748992;81;20991;-78
2022/05/29 03:02:17;;;;;;;3.77;1.17;;;;;;;12.16;65.87;99254.11;1745868;81;20987;-75
2022/05/29 03:05:28;;;;;;;4.40;1.32;;;;;;;12.17;65.79;99239.74;1747970;81;21118;-67
2022/05/29 03:08:01;;;;;;;2.70;1.27;;;;;;;12.18;65.91;99245.48;1729692;81;20984;-74
2022/05/29 03:10:33;;;;;;;4.53;1.17;;;;;;;12.18;65.87;99234.44;1743670;81;21125;-68
2022/05/29 03:13:16;;;;;;;1.62;0.80;;;;;;;12.17;65.65;99236.42;1719621;81;21027;-75
2022/05/29 03:16:01;;;;;;;1.52;0.90;;;;;;;12.18;65.65;99231.68;1743184;81;21003;-68
2022/05/29 03:18:50;;;;;;;1.30;0.90;;;;;;;12.17;65.55;99225.37;1716192;81;21090;-67
2022/05/29 03:21:28;;;;;;;1.57;1.12;;;;;;;12.15;65.69;99217.17;1745649;81;21066;-70
2022/05/29 03:24:28;;;;;;;2.25;1.10;;;;;;;12.16;65.91;99214.06;1731743;82;21181;-68
2022/05/29 03:27:06;;;;;;;1.82;1.20;;;;;;;12.17;65.96;99228.69;1733131;82;21063;-68
2022/05/29 03:29:57;;;;;;;3.05;1.00;;;;;;;12.16;66.64;99225.12;1753251;81;21058;-76
2022/05/29 03:32:23;;;;;;;1.40;0.90;;;;;;;12.17;67.33;99231.45;1749729;81;21003;-76
2022/05/29 03:34:55;;;;;;;1.42;0.98;;;;;;;12.21;68.04;99232.41;1751620;81;21027;-71
2022/05/29 03:37:21;;;;;;;1.67;1.05;;;;;;;12.23;68.74;99233.45;1757386;81;21195;-71
2022/05/29 03:39:51;;;;;;;3.85;1.00;;;;;;;12.26;68.87;99241.05;1755481;81;21027;-75
2022/05/29 03:42:17;;;;;;;4.50;1.00;;;;;;;12.32;68.48;99248.57;1755543;81;21191;-74
2022/05/29 03:44:45;;;;;;;2.58;1.20;;;;;;;12.39;68.32;99255.72;1753421;81;20989;-70
2022/05/29 03:47:12;;;;;;;2.58;0.95;;;;;;;12.46;68.24;99264.27;1756977;80;21081;-72
2022/05/29 03:49:40;;;;;;;5.33;0.98;;;;;;;12.51;68.05;99267.39;1753680;81;21200;-75
2022/05/29 03:52:07;;;;;;;1.12;0.90;;;;;;;12.56;67.75;99263.61;1749130;79;21011;-73
2022/05/29 03:54:34;;;;;;;2.58;1.07;;;;;;;12.60;67.67;99270.90;1756103;81;20968;-71
2022/05/29 03:57:01;;;;;;;2.20;1.07;;;;;;;12.64;67.64;99275.17;1731452;82;21076;-69
2022/05/29 03:59:27;;;;;;;1.22;1.00;;;;;;;12.68;67.23;99280.80;1750603;81;21023;-75
2022/05/29 04:01:53;;;;;;;2.35;1.02;;;;;;;12.70;67.02;99282.66;1743207;81;21237;-72
2022/05/29 04:04:21;;;;;;;5.85;1.37;;;;;;;12.71;67.09;99284.30;1733611;81;21159;-71
2022/05/29 04:06:48;;;;;;;3.47;1.02;;;;;;;12.73;67.09;99291.66;1765507;81;21579;-70
2022/05/29 04:12:04;;;;;;;1.65;1.00;;;;;;;12.76;66.68;99289.02;1765921;81;21019;-70
2022/05/29 04:14:39;;;;;;;3.95;1.42;;;;;;;12.80;66.67;99285.00;1737635;81;21139;-69
2022/05/29 04:17:13;;;;;;;3.47;1.17;;;;;;;12.90;66.24;99285.95;1754798;81;21022;-73
2022/05/29 04:19:41;;;;;;;3.70;1.20;;;;;;;12.99;66.03;99296.11;1737727;81;21560;-70
2022/05/29 04:22:17;;;;;;;3.80;0.90;;;;;;;13.06;65.56;99298.31;1752650;81;21037;-69
2022/05/29 04:24:44;;;;;;;1.95;1.05;;;;;;;13.05;65.22;99302.25;1754563;81;20999;-73
2022/05/29 04:27:13;;;;;;;2.98;1.10;;;;;;;12.98;64.79;99303.59;1731933;82;21087;-72
2022/05/29 04:29:43;;;;;;;1.80;1.00;;;;;;;12.93;64.76;99304.41;1758024;81;21101;-70
2022/05/29 04:34:58;;;;;;;2.20;1.10;;;;;;;12.87;65.28;99306.00;1755586;81;21058;-74
2022/05/29 04:37:26;;;;;;;2.25;1.00;;;;;;;12.89;65.39;99309.23;1757631;81;21538;-72
2022/05/29 04:39:53;;;;;;;9.45;1.50;;;;;;;12.93;65.53;99309.34;1756732;80;21218;-73
2022/05/29 04:42:19;;;;;;;1.67;0.90;;;;;;;13.00;65.63;99307.40;1737446;82;21087;-75
2022/05/29 04:44:46;;;;;;;1.70;0.82;;;;;;;13.07;65.97;99310.42;1729013;81;21027;-70
2022/05/29 04:47:13;;;;;;;2.30;1.02;;;;;;;13.14;66.26;99312.63;1726432;81;21047;-75
2022/05/29 04:49:42;;;;;;;2.00;1.00;;;;;;;13.15;66.11;99307.34;1752646;81;21034;-75
2022/05/29 04:52:09;;;;;;;5.08;1.62;;;;;;;13.17;65.64;99312.53;1724002;81;21602;-74
2022/05/29 04:54:37;;;;;;;3.40;1.52;;;;;;;13.18;65.59;99309.98;1751201;81;21019;-70
2022/05/29 04:57:06;;;;;;;2.37;1.37;;;;;;;13.18;65.41;99318.28;1725265;81;20973;-68
2022/05/29 04:59:33;;;;;;;2.20;1.20;;;;;;;13.15;65.72;99317.80;1753149;81;21090;-72
2022/05/29 05:02:01;;;;;;;4.10;1.15;;;;;;;13.16;65.78;99315.86;1732282;81;21057;-70
2022/05/29 05:04:29;;;;;;;4.72;1.65;;;;;;;13.19;65.86;99310.20;1753274;81;21143;-75
2022/05/29 05:06:59;;;;;;;4.10;0.90;;;;;;;13.25;66.23;99319.91;1752909;81;21014;-71
2022/05/29 05:09:26;;;;;;;3.50;1.00;;;;;;;13.30;65.58;99322.46;1753925;81;20979;-77
2022/05/29 05:11:55;;;;;;;2.35;0.80;;;;;;;13.36;65.17;99321.64;1750902;81;20975;-73
2022/05/29 05:14:24;;;;;;;4.08;1.12;;;;;;;13.43;64.73;99321.08;1749193;81;20987;-77
2022/05/29 05:16:56;;;;;;;2.92;0.72;;;;;;;13.48;65.04;99324.44;1751364;81;20979;-71
2022/05/29 05:19:24;;;;;;;1.52;0.93;;;;;;;13.56;64.45;99323.33;1753491;81;21484;-75
2022/05/29 05:21:52;;;;;;;1.37;0.68;;;;;;;13.65;64.93;99323.22;1753556;81;21522;-74
2022/05/29 05:24:21;;;;;;;1.35;0.72;;;;;;;13.72;64.42;99317.89;1749043;81;21098;-73
2022/05/29 05:26:50;;;;;;;0.70;0.70;;;;;;;13.78;64.29;99317.09;1748940;81;21043;-70
2022/05/29 05:29:17;;;;;;;5.58;1.10;;;;;;;13.85;64.41;99325.64;1755492;81;21102;-76
2022/05/29 05:31:44;;;;;;;2.35;0.80;;;;;;;13.93;64.18;99326.66;1753129;81;21649;-74
2022/05/29 05:34:10;;;;;;;3.98;0.80;;;;;;;13.99;63.52;99328.02;1751912;81;21064;-73
2022/05/29 05:36:38;;;;;;;1.77;0.78;;;;;;;14.03;63.37;99328.95;1724175;81;21014;-74
2022/05/29 05:39:07;;;;;;;2.05;0.80;;;;;;;14.05;63.80;99332.19;1754765;80;21026;-71
2022/05/29 05:41:35;;;;;;;6.00;1.00;;;;;;;14.10;63.78;99331.95;1752749;81;21140;-69
2022/05/29 05:44:04;;;;;;;3.92;1.10;;;;;;;14.19;63.42;99337.94;1755161;81;21122;-77
2022/05/29 05:46:31;;;;;;;1.10;0.70;;;;;;;14.25;63.17;99337.91;1740609;81;21094;-76
2022/05/29 05:49:00;;;;;;;3.50;0.95;;;;;;;14.33;63.14;99343.11;1713928;81;21035;-70
2022/05/29 05:51:28;;;;;;;1.85;1.05;;;;;;;14.40;62.60;99341.92;1745060;80;20903;-71
2022/05/29 05:53:55;;;;;;;1.20;1.10;;;;;;;14.47;62.23;99337.16;1750955;80;21106;-69
2022/05/29 05:56:24;;;;;;;4.62;1.17;;;;;;;14.51;61.11;99343.63;1733910;81;21078;-74
2022/05/29 05:58:51;;;;;;;2.47;1.20;;;;;;;14.54;61.32;99337.95;1754484;81;21047;-71
2022/05/29 06:01:18;;;;;;;1.80;1.02;;;;;;;14.56;61.33;99332.30;1750054;79;21067;-69
2022/05/29 06:03:50;;;;;;;1.50;1.00;;;;;;;14.60;61.48;99338.73;1735831;81;21527;-72
2022/05/29 06:06:19;;;;;;;5.45;1.02;;;;;;;14.65;60.68;99340.48;1755749;81;20980;-71
2022/05/29 06:08:50;;;;;;;6.70;1.25;;;;;;;14.65;60.21;99338.27;1748860;81;21019;-73
2022/05/29 06:11:19;;;;;;;2.90;0.98;;;;;;;14.61;59.83;99336.78;1746970;80;21093;-73
2022/05/29 06:13:49;;;;;;;5.83;1.45;;;;;;;14.59;60.27;99337.13;1732890;81;21035;-74
2022/05/29 06:16:16;;;;;;;3.40;1.00;;;;;;;14.65;59.96;99335.50;1750722;81;21484;-73
2022/05/29 06:18:45;;;;;;;6.35;1.70;;;;;;;14.68;59.98;99334.80;1748170;81;21532;-76
2022/05/29 06:21:14;;;;;;;4.08;1.10;;;;;;;14.76;60.65;99342.72;1730085;82;21503;-71
2022/05/29 06:23:41;;;;;;;2.25;1.12;;;;;;;14.87;60.22;99345.84;1750325;81;21078;-71
2022/05/29 06:26:11;;;;;;;3.65;1.20;;;;;;;14.96;59.54;99348.67;1729461;82;21094;-69
2022/05/29 06:28:38;;;;;;;3.25;0.90;;;;;;;15.01;58.83;99344.83;1746223;81;21178;-74
2022/05/29 06:31:08;;;;;;;1.70;1.17;;;;;;;15.09;58.70;99346.66;1754739;81;21527;-71
2022/05/29 06:33:37;;;;;;;5.78;1.70;;;;;;;15.15;58.23;99348.58;1734408;82;21105;-72
2022/05/29 06:36:09;;;;;;;2.72;1.30;;;;;;;15.25;58.52;99352.01;1734475;82;21062;-72
2022/05/29 06:38:37;;;;;;;3.20;1.10;;;;;;;15.32;57.93;99357.73;1724393;81;21058;-74
2022/05/29 06:41:10;;;;;;;1.90;0.95;;;;;;;15.37;55.87;99351.91;1754903;80;21072;-72
2022/05/29 06:43:38;;;;;;;2.17;0.90;;;;;;;15.42;55.59;99352.25;1720583;82;21012;-75
2022/05/29 06:46:05;;;;;;;4.65;1.00;;;;;;;15.43;55.59;99353.28;1739409;82;21068;-75
2022/05/29 06:48:37;;;;;;;3.10;1.00;;;;;;;15.47;55.94;99347.01;1735575;82;20985;-68
2022/05/29 06:51:15;;;;;;;2.00;0.80;;;;;;;15.51;54.90;99348.70;1736303;82;21330;-71
2022/05/29 06:53:43;;;;;;;1.60;1.12;;;;;;;15.55;55.38;99356.55;1736903;82;20894;-69
2022/05/29 06:56:10;;;;;;;5.08;0.88;;;;;;;15.64;55.67;99356.95;1731090;82;21845;-74
2022/05/29 06:58:37;;;;;;;3.80;1.10;;;;;;;15.70;55.96;99358.28;1735927;82;20921;-74
2022/05/29 07:07:01;;;;;;;2.80;0.90;;;;;;;15.92;56.03;99361.58;1716510;82;21006;-77
2022/05/29 07:09:36;;;;;;;2.50;0.85;;;;;;;15.99;54.69;99362.36;1736778;82;21189;-70
2022/05/29 07:12:11;;;;;;;1.05;0.93;;;;;;;16.03;53.74;99352.15;1737344;82;21025;-78
2022/05/29 07:14:49;;;;;;;6.55;1.42;;;;;;;16.07;52.63;99355.80;1726253;82;21589;-78
2022/05/29 07:17:22;;;;;;;2.30;0.93;;;;;;;16.13;53.53;99363.28;1734350;82;21045;-74
2022/05/29 07:19:52;;;;;;;2.37;1.30;;;;;;;16.18;54.19;99363.00;1714514;82;21112;-72
2022/05/29 07:22:18;;;;;;;2.60;1.35;;;;;;;16.25;55.34;99361.78;1736405;82;21555;-69
2022/05/29 07:24:45;;;;;;;3.15;1.30;;;;;;;16.36;55.12;99362.00;1731422;82;22332;-77
2022/05/29 07:27:15;;;;;;;2.92;0.62;;;;;;;16.48;55.00;99362.46;1732243;82;21065;-77
2022/05/29 07:29:42;;;;;;;1.57;0.95;;;;;;;16.57;54.37;99363.64;1735762;82;21028;-78
2022/05/29 07:32:11;;;;;;;1.15;0.90;;;;;;;16.63;52.40;99361.39;1731853;82;21034;-75
2022/05/29 07:34:37;;;;;;;2.80;1.00;;;;;;;16.65;51.41;99361.23;1737021;81;21762;-77
2022/05/29 07:37:08;;;;;;;2.17;0.90;;;;;;;16.66;52.13;99371.20;1736797;82;21084;-72
2022/05/29 07:39:41;;;;;;;2.62;0.90;;;;;;;16.68;52.34;99366.66;1733002;82;21010;-73
2022/05/29 07:44:54;;;;;;;3.15;1.10;;;;;;;16.77;52.13;99368.63;1737770;81;21000;-73
2022/05/29 07:47:22;;;;;;;3.00;0.90;;;;;;;16.79;51.34;99369.64;1738367;81;21832;-70
2022/05/29 07:49:49;;;;;;;4.85;1.05;;;;;;;16.81;51.01;99365.92;1740336;81;21484;-69
2022/05/29 07:52:15;;;;;;;2.02;0.93;;;;;;;16.82;51.75;99366.73;1738257;81;21063;-76
2022/05/29 07:54:46;;;;;;;1.55;0.82;;;;;;;16.88;50.27;99374.42;1737534;81;20983;-72
2022/05/29 07:57:14;;;;;;;3.20;1.20;;;;;;;16.96;49.89;99373.15;1738132;81;21071;-71
2022/05/29 07:59:41;;;;;;;2.15;0.80;;;;;;;17.02;50.42;99364.73;1737137;81;21472;-73
2022/05/29 08:02:09;;;;;;;2.72;0.80;;;;;;;17.04;51.63;99367.97;1737312;81;20987;-69
2022/05/29 08:04:36;;;;;;;2.22;0.80;;;;;;;17.12;50.48;99360.58;1739508;81;21039;-70
2022/05/29 08:07:03;;;;;;;2.33;0.88;;;;;;;17.18;49.95;99366.05;1740688;81;20995;-75
2022/05/29 08:09:31;;;;;;;1.65;0.93;;;;;;;17.24;50.62;99366.56;1740456;81;21035;-74
2022/05/29 08:11:59;;;;;;;2.17;1.00;;;;;;;17.27;48.83;99366.63;1738296;81;21571;-70
2022/05/29 08:14:29;;;;;;;2.17;0.88;;;;;;;17.32;48.64;99380.83;1708821;81;21527;-74
2022/05/29 08:16:56;;;;;;;3.22;1.10;;;;;;;17.40;49.06;99386.73;1738614;81;20991;-75
2022/05/29 08:19:23;;;;;;;3.58;0.80;;;;;;;17.48;47.56;99384.91;1759420;80;20992;-68
2022/05/29 08:21:53;;;;;;;2.75;1.00;;;;;;;17.52;47.20;99389.94;1740336;81;20989;-74
2022/05/29 08:32:39;;;;;;;1.57;0.80;;;;;;;17.95;47.67;99381.27;1711051;81;21164;-70
2022/05/29 08:35:06;;;;;;;4.12;0.90;;;;;;;18.04;47.11;99392.16;1739948;81;21018;-68
2022/05/29 08:37:36;;;;;;;2.90;0.72;;;;;;;18.08;45.88;99384.06;1740744;81;21907;-73
2022/05/29 08:40:05;;;;;;;4.58;0.78;;;;;;;18.09;44.92;99386.27;1739253;81;21450;-70
2022/05/29 08:42:34;;;;;;;2.65;0.88;;;;;;;18.12;46.46;99388.30;1741492;81;21005;-69
2022/05/29 08:45:02;;;;;;;2.12;0.78;;;;;;;18.15;45.23;99389.58;1743920;81;20987;-71
2022/05/29 08:47:32;;;;;;;0.98;0.78;;;;;;;18.12;44.88;99386.91;1745947;81;21039;-74
2022/05/29 08:50:00;;;;;;;1.87;0.80;;;;;;;18.14;46.17;99384.58;1743579;81;21023;-71
2022/05/29 08:52:47;;;;;;;1.98;1.00;;;;;;;18.24;46.97;99383.13;1742943;81;20989;-76
2022/05/29 08:55:31;;;;;;;1.70;0.75;;;;;;;18.35;46.28;99384.11;1742908;81;20999;-73
2022/05/29 08:58:07;;;;;;;;;;;;;;;18.43;47.48;99383.61;1746447;81;21673;-77
2022/05/29 09:01:04;;;;;;;2.45;0.68;;;;;;;18.53;46.63;99382.14;1742972;81;20142;-72
2022/05/29 09:03:55;;;;;;;2.45;1.00;;;;;;;18.61;46.52;99381.05;1742912;81;21268;-75
2022/05/29 09:06:51;;;;;;;1.57;0.60;;;;;;;18.66;45.19;99378.54;1745262;81;20998;-73
2022/05/29 09:09:44;;;;;;;2.30;1.02;;;;;;;18.65;43.85;99374.13;1743378;81;21527;-68
2022/05/29 09:12:17;;;;;;;2.75;0.80;;;;;;;18.70;44.52;99376.58;1726933;81;21534;-72
2022/05/29 09:15:08;;;;;;;7.78;0.60;;;;;;;18.72;43.92;99372.83;1743975;81;21499;-75
2022/05/29 09:17:49;;;;;;;8.93;1.12;;;;;;;18.71;44.34;99377.39;1741564;81;21403;-76
2022/05/29 09:20:32;;;;;;;3.87;0.95;;;;;;;18.71;44.49;99386.55;1741008;81;21047;-72
2022/05/29 09:23:00;;;;;;;3.67;0.70;;;;;;;18.72;44.26;99374.22;1743238;81;21011;-76
2022/05/29 09:25:37;;;;;;;1.82;0.80;;;;;;;18.74;43.34;99382.20;1743474;81;21054;-74
2022/05/29 09:28:10;;;;;;;1.77;0.70;;;;;;;18.73;43.68;99375.81;1744987;81;21559;-72
2022/05/29 09:30:40;;;;;;;3.17;0.77;;;;;;;18.80;44.29;99372.31;1743643;81;21830;-75
2022/05/29 09:33:28;;;;;;;0.85;0.68;;;;;;;18.92;43.53;99378.23;1742906;80;21279;-73
2022/05/29 09:36:13;;;;;;;1.57;0.68;;;;;;;19.03;43.85;99385.34;1743133;81;21008;-70
2022/05/29 09:38:48;;;;;;;1.27;0.65;;;;;;;19.16;43.43;99385.09;1743755;81;21499;-67
2022/05/29 09:41:23;;;;;;;2.42;0.93;;;;;;;19.21;42.15;99386.96;1742492;81;21004;-67
2022/05/29 09:44:13;;;;;;;1.37;0.70;;;;;;;19.11;41.09;99382.67;1730043;81;21222;-71
2022/05/29 09:46:43;;;;;;;11.30;1.00;;;;;;;18.97;41.20;99377.89;1738038;81;20985;-74
2022/05/29 09:49:41;;;;;;;3.85;0.80;;;;;;;18.98;39.67;99375.33;1736822;81;21047;-75
2022/05/29 09:52:16;;;;;;;0.85;0.45;;;;;;;18.98;40.98;99373.12;1739840;81;20987;-68
2022/05/29 09:55:04;;;;;;;0.60;0.60;;;;;;;19.10;42.37;99381.83;1739014;81;21036;-73
2022/05/29 09:57:43;;;;;;;1.77;0.60;;;;;;;19.23;40.93;99376.80;1740136;81;21197;-73
2022/05/29 10:00:37;;;;;;;2.17;0.75;;;;;;;19.34;40.94;99377.70;1740279;81;21066;-74
2022/05/29 10:03:06;;;;;;;1.27;0.70;;;;;;;19.42;40.53;99375.80;1739131;81;21079;-66
2022/05/29 10:05:38;;;;;;;3.52;1.20;;;;;;;19.46;40.93;99373.05;1736904;81;21034;-76
2022/05/29 10:08:30;;;;;;;;;;;;;;;19.50;41.82;99376.66;1736421;81;21067;-75
2022/05/29 10:11:18;;;;;;;1.35;0.40;;;;;;;19.57;40.66;99380.11;1737370;81;21552;-70
2022/05/29 10:13:47;;;;;;;3.33;0.80;;;;;;;19.63;41.58;99380.58;1739447;81;21026;-73
2022/05/29 10:16:13;;;;;;;2.98;0.70;;;;;;;19.67;40.93;99378.01;1737251;81;21042;-73
2022/05/29 10:18:41;;;;;;;2.37;1.12;;;;;;;19.73;40.77;99386.04;1737036;81;21484;-68
2022/05/29 10:21:24;;;;;;;2.10;0.75;;;;;;;19.76;40.46;99383.86;1741373;81;21090;-78
2022/05/29 10:24:11;;;;;;;1.20;0.60;;;;;;;19.79;40.64;99378.92;1740192;81;21302;-73
2022/05/29 10:26:38;;;;;;;1.77;0.60;;;;;;;19.94;41.27;99374.24;1737354;81;21083;-73
2022/05/29 10:29:31;;;;;;;1.52;0.95;;;;;;;19.99;41.17;99376.68;1738622;81;21036;-74
2022/05/29 10:32:03;;;;;;;1.32;0.70;;;;;;;19.94;40.07;99388.22;1737965;81;21040;-69
2022/05/29 10:34:41;;;;;;;3.12;0.80;;;;;;;19.81;38.64;99386.30;1708590;81;21086;-73
2022/05/29 10:37:38;;;;;;;4.83;0.85;;;;;;;19.68;39.17;99389.41;1740075;81;20920;-72
2022/05/29 10:40:25;;;;;;;1.60;0.90;;;;;;;19.57;38.76;99386.52;1741699;81;20984;-76
2022/05/29 10:42:54;;;;;;;1.25;0.75;;;;;;;19.51;39.20;99387.25;1742031;81;21007;-74
2022/05/29 10:45:32;;;;;;;1.12;0.60;;;;;;;19.53;39.04;99380.69;1743688;81;21074;-73
2022/05/29 10:48:07;;;;;;;3.65;1.00;;;;;;;19.62;39.28;99381.77;1743602;81;21015;-77
2022/05/29 10:51:09;;;;;;;2.47;0.80;;;;;;;19.77;40.43;99378.50;1742592;81;21046;-76
2022/05/29 10:54:05;;;;;;;1.02;0.53;;;;;;;19.89;38.89;99378.18;1709925;83;21077;-75
2022/05/29 10:56:58;;;;;;;4.03;0.95;;;;;;;19.86;37.53;99380.36;1745876;81;21030;-76
2022/05/29 11:00:02;;;;;;;1.40;0.55;;;;;;;19.87;38.33;99376.98;1744126;81;21059;-73
2022/05/29 11:05:55;;;;;;;5.85;1.40;;;;;;;19.83;38.31;99381.95;1745135;81;20885;-69
2022/05/29 11:08:53;;;;;;;1.65;0.65;;;;;;;19.80;38.60;99375.73;1743921;81;20984;-75
2022/05/29 11:11:40;;;;;;;1.35;0.78;;;;;;;19.82;39.50;99375.34;1747189;81;20995;-68
2022/05/29 11:14:33;;;;;;;1.12;0.65;;;;;;;19.92;38.18;99378.02;1746134;81;21036;-72
2022/05/29 11:17:09;;;;;;;1.85;0.75;;;;;;;19.91;37.06;99372.20;1743548;81;20983;-76
2022/05/29 11:20:24;;;;;;;0.57;0.35;;;;;;;19.94;37.71;99370.05;1742615;81;21012;-69
2022/05/29 11:23:37;;;;;;;1.15;0.50;;;;;;;20.00;38.37;99374.08;1747216;81;21413;-70
2022/05/29 11:26:42;;;;;;;;;;;;;;;20.09;37.60;99362.59;1746556;81;21015;-73
2022/05/29 11:29:35;;;;;;;0.90;0.60;;;;;;;20.13;37.43;99357.81;1745176;81;20363;-70
2022/05/29 11:32:29;;;;;;;2.13;0.90;;;;;;;20.25;38.50;99367.09;1743683;81;21075;-76
2022/05/29 11:35:32;;;;;;;2.25;0.80;;;;;;;20.34;36.89;99374.52;1745693;81;21480;-74
2022/05/29 11:38:35;;;;;;;1.67;0.40;;;;;;;20.40;37.08;99372.95;1743164;81;21035;-69
2022/05/29 11:41:12;;;;;;;1.72;0.62;;;;;;;20.45;36.80;99370.98;1745439;81;21569;-73
2022/05/29 11:44:03;;;;;;;2.47;1.40;;;;;;;20.57;36.89;99371.24;1741933;81;21491;-76
2022/05/29 11:52:56;;;;;;;1.50;0.70;;;;;;;20.70;36.15;99375.89;1739937;82;21071;-72
2022/05/29 11:55:28;;;;;;;2.05;0.50;;;;;;;20.76;35.33;99369.52;1730828;82;21047;-72
2022/05/29 11:58:07;;;;;;;6.67;1.07;;;;;;;20.75;36.18;99369.33;1743612;81;21059;-76
2022/05/29 12:01:07;;;;;;;2.77;1.02;;;;;;;20.87;36.91;99363.97;1742688;82;21520;-76
2022/05/29 12:03:52;;;;;;;2.20;1.10;;;;;;;21.03;36.51;99355.85;1746250;81;21171;-71
2022/05/29 12:06:33;;;;;;;1.77;0.80;;;;;;;21.20;36.09;99359.09;1729917;82;21047;-76
2022/05/29 12:09:28;;;;;;;2.70;0.70;;;;;;;21.28;34.57;99359.30;1746941;81;21007;-71
2022/05/29 12:12:29;;;;;;;3.05;0.80;;;;;;;21.25;34.17;99359.50;1773062;80;20989;-77
2022/05/29 12:15:03;;;;;;;1.27;0.80;;;;;;;21.18;33.75;99355.88;1747290;81;21071;-70
2022/05/29 12:17:47;;;;;;;5.37;2.05;;;;;;;21.10;34.63;99360.05;1743025;82;21783;-73
2022/05/29 12:20:43;;;;;;;1.05;0.70;;;;;;;20.94;35.12;99361.02;1741796;82;21010;-77
2022/05/29 12:23:27;;;;;;;4.50;1.35;;;;;;;20.75;34.38;99362.91;1745264;81;21043;-68
2022/05/29 12:26:08;;;;;;;1.57;0.72;;;;;;;20.65;34.92;99365.88;1740664;82;21025;-77
2022/05/29 12:28:52;;;;;;;2.05;0.75;;;;;;;20.65;36.17;99362.49;1746572;81;21004;-77
2022/05/29 12:31:31;;;;;;;2.15;0.70;;;;;;;20.74;35.31;99361.33;1741881;82;21171;-78
2022/05/29 12:33:58;;;;;;;2.72;0.70;;;;;;;20.78;35.44;99348.13;1774229;80;21094;-75
2022/05/29 12:37:09;;;;;;;1.52;0.80;;;;;;;20.78;34.10;99355.13;1748031;81;21504;-76
2022/05/29 12:40:02;;;;;;;1.72;0.60;;;;;;;20.81;34.92;99364.16;1741375;82;21043;-75
2022/05/29 12:43:00;;;;;;;1.63;0.50;;;;;;;20.97;35.17;99367.22;1775048;80;21029;-70
2022/05/29 12:46:13;;;;;;;0.65;0.50;;;;;;;21.12;33.97;99362.48;1745153;81;21356;-73
2022/05/29 12:48:55;;;;;;;1.32;0.60;;;;;;;21.26;33.89;99360.28;1729295;82;21071;-76